sensor_id;sensor_type;location;lat;lon;timestamp;pressure;altitude;pressure_sealevel;temperature;humidity
61434;BME280;47300;46.192;9.000;2022-11-20T00:02:17;97546.38;;;8.32;43.56
61434;BME280;47300;46.192;9.000;2022-11-20T00:04:42;97535.03;;;8.33;43.53
61434;BME280;47300;46.192;9.000;2022-11-20T00:07:07;97537.69;;;8.31;43.81
61434;BME280;47300;46.192;9.000;2022-11-20T00:09:33;97546.50;;;8.21;44.72
61434;BME280;47300;46.192;9.000;2022-11-20T00:11:58;97540.38;;;8.22;44.11
61434;BME280;47300;46.192;9.000;2022-11-20T00:14:23;97540.19;;;8.40;43.17
61434;BME280;47300;46.192;9.000;2022-11-20T00:16:49;97554.16;;;8.39;42.37
61434;BME280;47300;46.192;9.000;2022-11-20T00:19:14;97554.94;;;8.54;42.84
61434;BME280;47300;46.192;9.000;2022-11-20T00:21:39;97559.22;;;8.61;42.00
61434;BME280;47300;46.192;9.000;2022-11-20T00:24:05;97551.47;;;8.50;42.80
61434;BME280;47300;46.192;9.000;2022-11-20T00:26:31;97555.81;;;8.51;42.80
61434;BME280;47300;46.192;9.000;2022-11-20T00:28:59;97554.16;;;8.39;43.16
61434;BME280;47300;46.192;9.000;2022-11-20T00:31:24;97553.34;;;8.34;43.26
61434;BME280;47300;46.192;9.000;2022-11-20T00:33:50;97550.84;;;8.22;44.10
61434;BME280;47300;46.192;9.000;2022-11-20T00:36:17;97563.00;;;8.26;43.71
61434;BME280;47300;46.192;9.000;2022-11-20T00:38:43;97560.44;;;8.18;44.48
61434;BME280;47300;46.192;9.000;2022-11-20T00:41:11;97567.41;;;8.19;44.24
61434;BME280;47300;46.192;9.000;2022-11-20T00:43:37;97566.53;;;8.20;44.46
61434;BME280;47300;46.192;9.000;2022-11-20T00:46:09;97556.00;;;8.26;43.36
61434;BME280;47300;46.192;9.000;2022-11-20T00:48:35;97565.63;;;8.24;44.27
61434;BME280;47300;46.192;9.000;2022-11-20T00:51:00;97563.75;;;8.39;43.36
61434;BME280;47300;46.192;9.000;2022-11-20T00:53:26;97562.94;;;8.31;43.65
61434;BME280;47300;46.192;9.000;2022-11-20T00:56:00;97562.84;;;8.42;42.96
61434;BME280;47300;46.192;9.000;2022-11-20T00:58:29;97561.16;;;8.39;43.47
61434;BME280;47300;46.192;9.000;2022-11-20T01:01:03;97560.31;;;8.31;43.74
61434;BME280;47300;46.192;9.000;2022-11-20T01:03:31;97551.59;;;8.33;43.16
61434;BME280;47300;46.192;9.000;2022-11-20T01:06:02;97558.53;;;8.37;43.23
61434;BME280;47300;46.192;9.000;2022-11-20T01:08:32;97553.28;;;8.40;42.90
61434;BME280;47300;46.192;9.000;2022-11-20T01:11:22;97553.38;;;8.30;44.08
61434;BME280;47300;46.192;9.000;2022-11-20T01:13:48;97559.47;;;8.29;43.33
61434;BME280;47300;46.192;9.000;2022-11-20T01:16:17;97556.91;;;8.22;43.12
61434;BME280;47300;46.192;9.000;2022-11-20T01:18:46;97565.63;;;8.24;43.95
61434;BME280;47300;46.192;9.000;2022-11-20T01:21:17;97563.84;;;8.26;43.79
61434;BME280;47300;46.192;9.000;2022-11-20T01:23:43;97572.56;;;8.25;43.57
61434;BME280;47300;46.192;9.000;2022-11-20T01:26:14;97569.13;;;8.23;43.89
61434;BME280;47300;46.192;9.000;2022-11-20T01:28:40;97576.13;;;8.20;43.52
61434;BME280;47300;46.192;9.000;2022-11-20T01:33:47;97579.69;;;8.11;44.06
61434;BME280;47300;46.192;9.000;2022-11-20T01:36:14;97578.81;;;8.12;43.57
61434;BME280;47300;46.192;9.000;2022-11-20T01:38:40;97585.75;;;8.16;44.32
61434;BME280;47300;46.192;9.000;2022-11-20T01:41:06;97583.09;;;8.21;43.08
61434;BME280;47300;46.192;9.000;2022-11-20T01:43:32;97583.06;;;8.24;43.66
61434;BME280;47300;46.192;9.000;2022-11-20T01:48:44;97580.53;;;8.13;44.42
61434;BME280;47300;46.192;9.000;2022-11-20T01:51:18;97579.72;;;8.08;44.15
61434;BME280;47300;46.192;9.000;2022-11-20T01:53:46;97583.09;;;8.21;43.62
61434;BME280;47300;46.192;9.000;2022-11-20T01:56:12;97586.59;;;8.18;43.60
61434;BME280;47300;46.192;9.000;2022-11-20T01:58:44;97584.00;;;8.14;43.80
61434;BME280;47300;46.192;9.000;2022-11-20T02:01:13;97575.38;;;8.07;44.07
61434;BME280;47300;46.192;9.000;2022-11-20T02:03:39;97572.69;;;8.11;44.24
61434;BME280;47300;46.192;9.000;2022-11-20T02:06:22;97573.53;;;8.15;43.92
61434;BME280;47300;46.192;9.000;2022-11-20T02:08:48;97568.34;;;8.12;43.56
61434;BME280;47300;46.192;9.000;2022-11-20T02:11:13;97574.47;;;8.11;44.26
61434;BME280;47300;46.192;9.000;2022-11-20T02:13:39;97580.56;;;8.10;44.01
61434;BME280;47300;46.192;9.000;2022-11-20T02:16:48;97577.09;;;8.08;43.80
61434;BME280;47300;46.192;9.000;2022-11-20T02:19:18;97580.56;;;8.08;44.10
61434;BME280;47300;46.192;9.000;2022-11-20T02:24:23;97583.16;;;8.13;44.38
61434;BME280;47300;46.192;9.000;2022-11-20T02:26:54;97579.72;;;8.03;43.98
61434;BME280;47300;46.192;9.000;2022-11-20T02:32:21;97580.63;;;8.04;43.83
61434;BME280;47300;46.192;9.000;2022-11-20T02:34:47;97577.16;;;8.02;43.50
61434;BME280;47300;46.192;9.000;2022-11-20T02:37:13;97583.16;;;8.13;43.26
61434;BME280;47300;46.192;9.000;2022-11-20T02:39:39;97598.09;;;7.97;44.21
61434;BME280;47300;46.192;9.000;2022-11-20T02:42:05;97590.19;;;8.03;43.98
61434;BME280;47300;46.192;9.000;2022-11-20T02:44:30;97585.75;;;8.11;43.13
61434;BME280;47300;46.192;9.000;2022-11-20T02:46:59;97592.78;;;8.06;44.24
61434;BME280;47300;46.192;9.000;2022-11-20T02:49:25;97598.84;;;8.10;43.79
61434;BME280;47300;46.192;9.000;2022-11-20T02:51:50;97590.13;;;8.09;43.49
61434;BME280;47300;46.192;9.000;2022-11-20T02:54:16;97591.84;;;8.15;42.70
61434;BME280;47300;46.192;9.000;2022-11-20T02:56:41;97591.00;;;8.08;43.60
61434;BME280;47300;46.192;9.000;2022-11-20T02:59:07;97592.84;;;7.99;43.64
61434;BME280;47300;46.192;9.000;2022-11-20T03:01:33;97587.66;;;7.94;44.90
61434;BME280;47300;46.192;9.000;2022-11-20T03:03:58;97597.19;;;8.00;43.21
61434;BME280;47300;46.192;9.000;2022-11-20T03:06:24;97596.34;;;7.94;44.33
61434;BME280;47300;46.192;9.000;2022-11-20T03:08:49;97598.06;;;8.00;43.70
61434;BME280;47300;46.192;9.000;2022-11-20T03:11:15;97591.94;;;8.06;43.38
61434;BME280;47300;46.192;9.000;2022-11-20T03:13:42;97594.56;;;8.01;43.78
61434;BME280;47300;46.192;9.000;2022-11-20T03:16:16;97591.91;;;8.04;43.23
61434;BME280;47300;46.192;9.000;2022-11-20T03:18:43;97590.25;;;7.97;44.18
61434;BME280;47300;46.192;9.000;2022-11-20T03:21:09;97586.72;;;8.01;43.73
61434;BME280;47300;46.192;9.000;2022-11-20T03:23:35;97593.63;;;8.08;43.24
61434;BME280;47300;46.192;9.000;2022-11-20T03:28:36;97583.19;;;8.05;43.83
61434;BME280;47300;46.192;9.000;2022-11-20T03:31:22;97579.72;;;8.08;43.65
61434;BME280;47300;46.192;9.000;2022-11-20T03:33:48;97580.66;;;8.01;43.38
61434;BME280;47300;46.192;9.000;2022-11-20T03:36:14;97580.59;;;8.07;43.74
61434;BME280;47300;46.192;9.000;2022-11-20T03:38:41;97585.78;;;8.08;43.46
61434;BME280;47300;46.192;9.000;2022-11-20T03:41:12;97590.28;;;7.95;44.19
61434;BME280;47300;46.192;9.000;2022-11-20T03:43:38;97583.25;;;8.01;43.18
61434;BME280;47300;46.192;9.000;2022-11-20T03:46:05;97592.88;;;7.94;43.88
61434;BME280;47300;46.192;9.000;2022-11-20T03:48:31;97588.56;;;7.90;44.12
61434;BME280;47300;46.192;9.000;2022-11-20T03:51:07;97578.97;;;7.90;43.55
61434;BME280;47300;46.192;9.000;2022-11-20T03:53:33;97585.97;;;7.85;44.96
61434;BME280;47300;46.192;9.000;2022-11-20T03:55:58;97590.38;;;7.78;44.50
61434;BME280;47300;46.192;9.000;2022-11-20T03:58:23;97587.72;;;7.83;44.40
61434;BME280;47300;46.192;9.000;2022-11-20T04:00:48;97598.22;;;7.77;44.96
61434;BME280;47300;46.192;9.000;2022-11-20T04:03:14;97593.88;;;7.77;44.04
61434;BME280;47300;46.192;9.000;2022-11-20T04:05:39;97593.03;;;7.71;44.94
61434;BME280;47300;46.192;9.000;2022-11-20T04:08:05;97597.41;;;7.68;44.44
61434;BME280;47300;46.192;9.000;2022-11-20T04:10:30;97587.78;;;7.78;44.24
61434;BME280;47300;46.192;9.000;2022-11-20T04:12:55;97589.47;;;7.82;44.02
61434;BME280;47300;46.192;9.000;2022-11-20T04:15:20;97600.88;;;7.71;45.02
61434;BME280;47300;46.192;9.000;2022-11-20T04:17:46;97594.81;;;7.65;44.52
61434;BME280;47300;46.192;9.000;2022-11-20T04:20:11;97585.13;;;7.81;43.88
61434;BME280;47300;46.192;9.000;2022-11-20T04:22:36;97586.91;;;7.79;44.46
61434;BME280;47300;46.192;9.000;2022-11-20T04:25:02;97589.44;;;7.87;43.29
61434;BME280;47300;46.192;9.000;2022-11-20T04:27:27;97584.25;;;7.82;44.20
61434;BME280;47300;46.192;9.000;2022-11-20T04:29:53;97584.28;;;7.73;44.71
61434;BME280;47300;46.192;9.000;2022-11-20T04:32:18;97588.66;;;7.71;44.14
61434;BME280;47300;46.192;9.000;2022-11-20T04:34:43;97599.16;;;7.66;45.24
61434;BME280;47300;46.192;9.000;2022-11-20T04:37:08;97598.22;;;7.78;43.41
61434;BME280;47300;46.192;9.000;2022-11-20T04:39:34;97590.34;;;7.85;43.29
61434;BME280;47300;46.192;9.000;2022-11-20T04:41:59;97597.28;;;7.84;43.36
61434;BME280;47300;46.192;9.000;2022-11-20T04:44:53;97598.22;;;7.78;43.43
61434;BME280;47300;46.192;9.000;2022-11-20T04:47:18;97605.06;;;7.93;43.18
61434;BME280;47300;46.192;9.000;2022-11-20T04:49:44;97599.94;;;7.82;44.29
61434;BME280;47300;46.192;9.000;2022-11-20T04:52:09;97602.50;;;7.87;43.16
61434;BME280;47300;46.192;9.000;2022-11-20T04:54:34;97605.09;;;7.90;43.06
61434;BME280;47300;46.192;9.000;2022-11-20T04:57:00;97612.91;;;7.93;43.75
61434;BME280;47300;46.192;9.000;2022-11-20T04:59:25;97598.09;;;7.94;42.96
61434;BME280;47300;46.192;9.000;2022-11-20T05:01:50;97614.63;;;8.01;42.74
61434;BME280;47300;46.192;9.000;2022-11-20T05:04:16;97614.63;;;7.99;43.32
61434;BME280;47300;46.192;9.000;2022-11-20T05:06:41;97615.50;;;8.00;41.76
61434;BME280;47300;46.192;9.000;2022-11-20T05:09:06;97625.00;;;8.10;42.45
61434;BME280;47300;46.192;9.000;2022-11-20T05:11:32;97631.09;;;8.07;42.37
61434;BME280;47300;46.192;9.000;2022-11-20T05:13:58;97632.06;;;7.99;43.36
61434;BME280;47300;46.192;9.000;2022-11-20T05:16:25;97645.97;;;7.99;43.49
61434;BME280;47300;46.192;9.000;2022-11-20T05:18:52;97630.34;;;7.93;43.32
61434;BME280;47300;46.192;9.000;2022-11-20T05:21:18;97647.81;;;7.88;45.35
61434;BME280;47300;46.192;9.000;2022-11-20T05:23:45;97636.53;;;7.73;45.96
61434;BME280;47300;46.192;9.000;2022-11-20T05:26:19;97644.50;;;7.50;47.08
61434;BME280;47300;46.192;9.000;2022-11-20T05:28:47;97654.13;;;7.37;49.01
61434;BME280;47300;46.192;9.000;2022-11-20T05:31:14;97649.00;;;7.20;47.31
61434;BME280;47300;46.192;9.000;2022-11-20T05:33:41;97649.84;;;7.20;47.79
61434;BME280;47300;46.192;9.000;2022-11-20T05:36:08;97655.09;;;7.09;49.27
61434;BME280;47300;46.192;9.000;2022-11-20T05:38:34;97656.03;;;6.84;49.75
61434;BME280;47300;46.192;9.000;2022-11-20T05:41:13;97650.84;;;6.65;50.60
61434;BME280;47300;46.192;9.000;2022-11-20T05:43:40;97657.81;;;6.57;50.47
61434;BME280;47300;46.192;9.000;2022-11-20T05:46:08;97663.03;;;6.33;50.28
61434;BME280;47300;46.192;9.000;2022-11-20T05:48:35;97663.00;;;6.32;51.72
61434;BME280;47300;46.192;9.000;2022-11-20T05:51:02;97672.53;;;6.05;53.17
61434;BME280;47300;46.192;9.000;2022-11-20T05:53:28;97670.84;;;6.33;50.28
61434;BME280;47300;46.192;9.000;2022-11-20T05:56:04;97659.53;;;6.53;49.15
61434;BME280;47300;46.192;9.000;2022-11-20T05:58:30;97668.25;;;6.54;49.84
61434;BME280;47300;46.192;9.000;2022-11-20T06:01:13;97660.44;;;6.44;47.98
61434;BME280;47300;46.192;9.000;2022-11-20T06:03:39;97662.94;;;6.95;45.80
61434;BME280;47300;46.192;9.000;2022-11-20T06:06:07;97670.75;;;7.11;47.58
61434;BME280;47300;46.192;9.000;2022-11-20T06:08:32;97679.53;;;6.68;51.37
61434;BME280;47300;46.192;9.000;2022-11-20T06:10:58;97676.03;;;6.22;53.04
61434;BME280;47300;46.192;9.000;2022-11-20T06:13:23;97685.50;;;5.96;54.54
61434;BME280;47300;46.192;9.000;2022-11-20T06:15:52;97674.25;;;5.95;52.66
61434;BME280;47300;46.192;9.000;2022-11-20T06:18:18;97679.44;;;5.90;54.30
61434;BME280;47300;46.192;9.000;2022-11-20T06:20:45;97678.56;;;5.98;53.61
61434;BME280;47300;46.192;9.000;2022-11-20T06:23:10;97677.72;;;5.97;53.85
61434;BME280;47300;46.192;9.000;2022-11-20T06:25:40;97686.41;;;6.01;51.46
61434;BME280;47300;46.192;9.000;2022-11-20T06:28:05;97686.44;;;6.04;52.46
61434;BME280;47300;46.192;9.000;2022-11-20T06:30:32;97701.16;;;5.94;53.18
61434;BME280;47300;46.192;9.000;2022-11-20T06:32:57;97695.94;;;5.91;53.18
61434;BME280;47300;46.192;9.000;2022-11-20T06:35:23;97697.63;;;5.69;55.56
61434;BME280;47300;46.192;9.000;2022-11-20T06:37:48;97700.25;;;5.78;54.69
61434;BME280;47300;46.192;9.000;2022-11-20T06:40:13;97703.69;;;5.75;54.93
61434;BME280;47300;46.192;9.000;2022-11-20T06:42:39;97705.44;;;5.79;54.83
61434;BME280;47300;46.192;9.000;2022-11-20T06:45:04;97711.56;;;5.91;54.72
61434;BME280;47300;46.192;9.000;2022-11-20T06:47:30;97711.56;;;5.92;53.72
61434;BME280;47300;46.192;9.000;2022-11-20T06:49:55;97712.44;;;5.93;54.96
61434;BME280;47300;46.192;9.000;2022-11-20T06:52:20;97712.41;;;5.87;56.03
61434;BME280;47300;46.192;9.000;2022-11-20T06:54:46;97715.00;;;5.84;54.20
61434;BME280;47300;46.192;9.000;2022-11-20T06:57:11;97722.88;;;5.99;53.79
61434;BME280;47300;46.192;9.000;2022-11-20T06:59:36;97715.88;;;5.87;55.11
61434;BME280;47300;46.192;9.000;2022-11-20T07:02:02;97734.13;;;5.90;54.19
61434;BME280;47300;46.192;9.000;2022-11-20T07:04:27;97730.56;;;5.63;54.95
61434;BME280;47300;46.192;9.000;2022-11-20T07:06:52;97734.09;;;5.75;54.36
61434;BME280;47300;46.192;9.000;2022-11-20T07:09:18;97740.97;;;5.59;54.01
61434;BME280;47300;46.192;9.000;2022-11-20T07:11:43;97743.59;;;5.67;56.28
61434;BME280;47300;46.192;9.000;2022-11-20T07:14:08;97741.91;;;5.75;54.84
61434;BME280;47300;46.192;9.000;2022-11-20T07:16:34;97748.84;;;5.79;55.85
61434;BME280;47300;46.192;9.000;2022-11-20T07:18:59;97737.59;;;5.89;55.07
61434;BME280;47300;46.192;9.000;2022-11-20T07:21:24;97748.91;;;5.98;55.09
61434;BME280;47300;46.192;9.000;2022-11-20T07:23:50;97742.88;;;6.02;54.89
61434;BME280;47300;46.192;9.000;2022-11-20T07:26:15;97753.34;;;6.11;54.07
61434;BME280;47300;46.192;9.000;2022-11-20T07:28:43;97754.22;;;6.07;54.27
61434;BME280;47300;46.192;9.000;2022-11-20T07:31:09;97762.03;;;6.19;54.97
61434;BME280;47300;46.192;9.000;2022-11-20T07:33:34;97755.09;;;6.21;54.49
61434;BME280;47300;46.192;9.000;2022-11-20T07:36:00;97768.88;;;5.96;57.55
61434;BME280;47300;46.192;9.000;2022-11-20T07:38:25;97773.19;;;5.86;57.19
61434;BME280;47300;46.192;9.000;2022-11-20T07:40:55;97771.41;;;5.78;58.03
61434;BME280;47300;46.192;9.000;2022-11-20T07:43:21;97780.09;;;5.80;57.29
61434;BME280;47300;46.192;9.000;2022-11-20T07:45:46;97773.28;;;6.07;54.66
61434;BME280;47300;46.192;9.000;2022-11-20T07:48:11;97769.06;;;6.76;53.31
61434;BME280;47300;46.192;9.000;2022-11-20T07:50:37;97767.28;;;7.31;52.04
61434;BME280;47300;46.192;9.000;2022-11-20T07:53:05;97769.81;;;7.64;52.96
61434;BME280;47300;46.192;9.000;2022-11-20T07:55:31;97763.47;;;8.22;50.48
61434;BME280;47300;46.192;9.000;2022-11-20T07:57:56;97767.63;;;8.61;49.49
61434;BME280;47300;46.192;9.000;2022-11-20T08:00:22;97771.59;;;9.10;46.83
61434;BME280;47300;46.192;9.000;2022-11-20T08:02:48;97769.63;;;9.34;44.61
61434;BME280;47300;46.192;9.000;2022-11-20T08:05:13;97789.25;;;9.77;44.37
61434;BME280;47300;46.192;9.000;2022-11-20T08:07:40;97783.09;;;9.82;44.05
61434;BME280;47300;46.192;9.000;2022-11-20T08:10:06;97782.31;;;9.73;44.77
61434;BME280;47300;46.192;9.000;2022-11-20T08:12:33;97788.88;;;10.09;45.09
61434;BME280;47300;46.192;9.000;2022-11-20T08:15:16;97795.34;;;9.79;43.68
61434;BME280;47300;46.192;9.000;2022-11-20T08:17:42;97797.75;;;9.97;44.26
61434;BME280;47300;46.192;9.000;2022-11-20T08:20:08;97791.13;;;10.39;43.41
61434;BME280;47300;46.192;9.000;2022-11-20T08:22:34;97806.84;;;10.42;42.87
61434;BME280;47300;46.192;9.000;2022-11-20T08:24:59;97793.22;;;10.76;42.42
61434;BME280;47300;46.192;9.000;2022-11-20T08:27:24;97801.69;;;10.95;42.19
61434;BME280;47300;46.192;9.000;2022-11-20T08:29:50;97804.41;;;10.89;43.21
61434;BME280;47300;46.192;9.000;2022-11-20T08:32:15;97809.09;;;10.68;41.82
61434;BME280;47300;46.192;9.000;2022-11-20T08:34:40;97806.56;;;10.62;42.42
61434;BME280;47300;46.192;9.000;2022-11-20T08:37:06;97797.59;;;10.76;43.21
61434;BME280;47300;46.192;9.000;2022-11-20T08:39:31;97798.59;;;10.70;44.19
61434;BME280;47300;46.192;9.000;2022-11-20T08:41:56;97801.31;;;10.62;44.03
61434;BME280;47300;46.192;9.000;2022-11-20T08:44:21;97803.09;;;10.62;44.47
61434;BME280;47300;46.192;9.000;2022-11-20T08:46:47;97784.56;;;10.71;44.74
61434;BME280;47300;46.192;9.000;2022-11-20T08:49:14;97803.88;;;10.67;44.65
61434;BME280;47300;46.192;9.000;2022-11-20T08:51:40;97786.34;;;10.69;44.50
61434;BME280;47300;46.192;9.000;2022-11-20T08:54:06;97793.25;;;10.75;43.51
61434;BME280;47300;46.192;9.000;2022-11-20T08:56:32;97790.31;;;10.95;42.82
61434;BME280;47300;46.192;9.000;2022-11-20T08:58:58;97786.59;;;11.08;42.25
61434;BME280;47300;46.192;9.000;2022-11-20T09:01:25;97792.13;;;10.27;40.98
61434;BME280;47300;46.192;9.000;2022-11-20T09:03:50;97794.94;;;10.13;42.01
61434;BME280;47300;46.192;9.000;2022-11-20T09:06:16;97792.47;;;10.01;42.66
61434;BME280;47300;46.192;9.000;2022-11-20T09:08:41;97779.25;;;10.11;42.45
61434;BME280;47300;46.192;9.000;2022-11-20T09:11:07;97785.59;;;9.93;42.97
61434;BME280;47300;46.192;9.000;2022-11-20T09:13:34;97789.44;;;9.61;43.43
61434;BME280;47300;46.192;9.000;2022-11-20T09:16:07;97791.25;;;9.54;44.00
61434;BME280;47300;46.192;9.000;2022-11-20T09:18:34;97781.56;;;9.60;44.92
61434;BME280;47300;46.192;9.000;2022-11-20T09:21:02;97784.13;;;9.69;43.52
61434;BME280;47300;46.192;9.000;2022-11-20T09:23:31;97782.50;;;10.29;43.70
61434;BME280;47300;46.192;9.000;2022-11-20T09:25:57;97778.72;;;10.50;41.82
61434;BME280;47300;46.192;9.000;2022-11-20T09:28:25;97786.56;;;10.53;43.01
61434;BME280;47300;46.192;9.000;2022-11-20T09:30:51;97774.19;;;11.17;42.77
61434;BME280;47300;46.192;9.000;2022-11-20T09:33:17;97769.34;;;11.43;41.81
61434;BME280;47300;46.192;9.000;2022-11-20T09:35:43;97780.91;;;11.33;41.34
61434;BME280;47300;46.192;9.000;2022-11-20T09:38:09;97779.28;;;11.27;41.43
61434;BME280;47300;46.192;9.000;2022-11-20T09:40:38;97779.03;;;11.40;41.83
61434;BME280;47300;46.192;9.000;2022-11-20T09:56:21;97755.16;;;12.78;39.05
61434;BME280;47300;46.192;9.000;2022-11-20T09:58:51;97760.06;;;12.56;39.23
61434;BME280;47300;46.192;9.000;2022-11-20T10:01:19;97758.59;;;12.82;37.95
61434;BME280;47300;46.192;9.000;2022-11-20T10:06:29;97753.16;;;12.88;38.30
61434;BME280;47300;46.192;9.000;2022-11-20T10:09:03;97762.84;;;12.09;38.33
61434;BME280;47300;46.192;9.000;2022-11-20T10:12:01;97747.72;;;12.58;40.35
61434;BME280;47300;46.192;9.000;2022-11-20T10:17:58;97731.09;;;12.94;37.99
61434;BME280;47300;46.192;9.000;2022-11-20T10:20:47;97726.97;;;13.16;37.14
61434;BME280;47300;46.192;9.000;2022-11-20T10:26:41;97727.97;;;13.12;39.99
61434;BME280;47300;46.192;9.000;2022-11-20T10:29:19;97726.38;;;13.73;38.03
61434;BME280;47300;46.192;9.000;2022-11-20T10:31:51;97721.91;;;13.75;35.53
61434;BME280;47300;46.192;9.000;2022-11-20T10:37:13;97715.03;;;14.31;36.30
61434;BME280;47300;46.192;9.000;2022-11-20T10:40:14;97712.22;;;14.64;35.32
61434;BME280;47300;46.192;9.000;2022-11-20T10:42:46;97707.50;;;14.47;34.90
61434;BME280;47300;46.192;9.000;2022-11-20T10:45:21;97708.84;;;14.32;34.62
61434;BME280;47300;46.192;9.000;2022-11-20T10:48:08;97710.41;;;14.38;35.17
61434;BME280;47300;46.192;9.000;2022-11-20T10:50:36;97712.00;;;14.43;34.08
61434;BME280;47300;46.192;9.000;2022-11-20T10:56:10;97706.56;;;14.76;35.55
61434;BME280;47300;46.192;9.000;2022-11-20T11:01:23;97694.97;;;15.08;34.67
61434;BME280;47300;46.192;9.000;2022-11-20T11:03:50;97695.00;;;15.06;34.38
61434;BME280;47300;46.192;9.000;2022-11-20T11:06:40;97695.19;;;15.01;33.82
61434;BME280;47300;46.192;9.000;2022-11-20T11:09:16;97697.16;;;14.95;34.09
61434;BME280;47300;46.192;9.000;2022-11-20T11:11:43;97696.03;;;15.02;33.81
61434;BME280;47300;46.192;9.000;2022-11-20T11:14:13;97685.69;;;14.96;34.45
61434;BME280;47300;46.192;9.000;2022-11-20T11:16:55;97690.75;;;15.27;33.61
61434;BME280;47300;46.192;9.000;2022-11-20T11:19:22;97686.13;;;15.83;33.00
61434;BME280;47300;46.192;9.000;2022-11-20T11:21:49;97674.06;;;16.00;31.25
61434;BME280;47300;46.192;9.000;2022-11-20T11:24:26;97673.31;;;15.96;31.65
61434;BME280;47300;46.192;9.000;2022-11-20T11:26:58;97671.47;;;15.98;30.06
61434;BME280;47300;46.192;9.000;2022-11-20T11:29:24;97660.25;;;16.15;31.27
61434;BME280;47300;46.192;9.000;2022-11-20T11:32:23;97666.38;;;16.38;31.34
61434;BME280;47300;46.192;9.000;2022-11-20T11:35:05;97656.47;;;16.21;30.06
61434;BME280;47300;46.192;9.000;2022-11-20T11:37:36;97653.56;;;16.05;30.21
61434;BME280;47300;46.192;9.000;2022-11-20T11:40:09;97652.19;;;15.95;30.63
61434;BME280;47300;46.192;9.000;2022-11-20T11:42:42;97650.44;;;16.17;30.82
61434;BME280;47300;46.192;9.000;2022-11-20T11:45:14;97643.44;;;16.39;31.31
61434;BME280;47300;46.192;9.000;2022-11-20T11:53:08;97638.56;;;16.28;30.74
61434;BME280;47300;46.192;9.000;2022-11-20T11:55:39;97641.97;;;16.31;29.49
61434;BME280;47300;46.192;9.000;2022-11-20T12:01:34;97635.94;;;16.71;30.27
61434;BME280;47300;46.192;9.000;2022-11-20T12:06:56;97623.19;;;16.58;28.85
61434;BME280;47300;46.192;9.000;2022-11-20T12:09:30;97622.63;;;16.93;29.30
61434;BME280;47300;46.192;9.000;2022-11-20T12:12:05;97622.31;;;16.80;29.88
61434;BME280;47300;46.192;9.000;2022-11-20T12:14:37;97616.06;;;16.81;30.51
61434;BME280;47300;46.192;9.000;2022-11-20T12:17:03;97610.03;;;16.77;29.66
61434;BME280;47300;46.192;9.000;2022-11-20T12:19:34;97611.56;;;16.83;29.74
61434;BME280;47300;46.192;9.000;2022-11-20T12:25:29;97599.97;;;16.86;28.26
61434;BME280;47300;46.192;9.000;2022-11-20T12:28:05;97592.19;;;17.03;28.60
61434;BME280;47300;46.192;9.000;2022-11-20T12:30:45;97583.09;;;17.09;27.43
61434;BME280;47300;46.192;9.000;2022-11-20T12:39:02;97594.19;;;16.12;24.51
61434;BME280;47300;46.192;9.000;2022-11-20T12:50:42;97591.75;;;16.06;24.68
61434;BME280;47300;46.192;9.000;2022-11-20T12:53:31;97576.63;;;15.86;25.58
61434;BME280;47300;46.192;9.000;2022-11-20T13:01:32;97575.28;;;15.52;24.07
61434;BME280;47300;46.192;9.000;2022-11-20T13:06:43;97575.03;;;15.82;24.72
61434;BME280;47300;46.192;9.000;2022-11-20T13:09:13;97576.22;;;15.51;24.08
61434;BME280;47300;46.192;9.000;2022-11-20T13:11:44;97575.19;;;15.31;24.89
61434;BME280;47300;46.192;9.000;2022-11-20T13:14:18;97574.09;;;15.60;23.90
61434;BME280;47300;46.192;9.000;2022-11-20T13:17:14;97568.44;;;16.16;23.77
61434;BME280;47300;46.192;9.000;2022-11-20T13:19:37;97564.19;;;15.89;23.00
61434;BME280;47300;46.192;9.000;2022-11-20T13:22:03;97567.34;;;15.75;23.43
61434;BME280;47300;46.192;9.000;2022-11-20T13:24:30;97557.25;;;15.63;23.96
61434;BME280;47300;46.192;9.000;2022-11-20T13:29:30;97541.75;;;15.54;24.68
61434;BME280;47300;46.192;9.000;2022-11-20T13:32:18;97552.88;;;15.38;23.87
61434;BME280;47300;46.192;9.000;2022-11-20T13:35:11;97554.91;;;15.77;24.00
61434;BME280;47300;46.192;9.000;2022-11-20T13:37:37;97546.13;;;15.77;24.38
61434;BME280;47300;46.192;9.000;2022-11-20T13:42:38;97540.44;;;15.42;24.40
61434;BME280;47300;46.192;9.000;2022-11-20T13:45:29;97541.00;;;15.72;25.49
61434;BME280;47300;46.192;9.000;2022-11-20T13:48:02;97531.84;;;15.59;24.32
61434;BME280;47300;46.192;9.000;2022-11-20T13:50:40;97516.16;;;15.76;26.39
61434;BME280;47300;46.192;9.000;2022-11-20T13:53:33;97512.28;;;15.85;25.30
61434;BME280;47300;46.192;9.000;2022-11-20T13:56:23;97524.06;;;15.54;25.24
61434;BME280;47300;46.192;9.000;2022-11-20T14:01:23;97513.50;;;15.54;25.24
61434;BME280;47300;46.192;9.000;2022-11-20T14:03:50;97505.59;;;15.53;25.83
61434;BME280;47300;46.192;9.000;2022-11-20T14:06:27;97507.16;;;15.58;25.53
61434;BME280;47300;46.192;9.000;2022-11-20T14:08:53;97519.59;;;15.78;25.97
61434;BME280;47300;46.192;9.000;2022-11-20T14:11:21;97519.34;;;16.07;24.93
61434;BME280;47300;46.192;9.000;2022-11-20T14:14:00;97517.19;;;15.96;24.94
61434;BME280;47300;46.192;9.000;2022-11-20T14:16:33;97515.84;;;15.62;24.83
61434;BME280;47300;46.192;9.000;2022-11-20T14:21:45;97526.34;;;15.86;24.99
61434;BME280;47300;46.192;9.000;2022-11-20T14:24:11;97530.97;;;16.04;26.17
61434;BME280;47300;46.192;9.000;2022-11-20T14:26:41;97539.44;;;16.13;25.40
61434;BME280;47300;46.192;9.000;2022-11-20T14:29:13;97538.69;;;16.31;25.22
61434;BME280;47300;46.192;9.000;2022-11-20T14:31:40;97530.75;;;16.31;26.11
61434;BME280;47300;46.192;9.000;2022-11-20T14:34:14;97528.41;;;16.44;25.35
61434;BME280;47300;46.192;9.000;2022-11-20T14:36:42;97524.84;;;15.80;25.12
61434;BME280;47300;46.192;9.000;2022-11-20T14:39:11;97522.56;;;15.25;25.75
61434;BME280;47300;46.192;9.000;2022-11-20T14:41:37;97529.00;;;15.17;25.81
61434;BME280;47300;46.192;9.000;2022-11-20T14:44:02;97529.38;;;14.56;25.93
61434;BME280;47300;46.192;9.000;2022-11-20T14:46:31;97522.81;;;14.42;26.83
61434;BME280;47300;46.192;9.000;2022-11-20T14:49:00;97520.97;;;14.70;26.03
61434;BME280;47300;46.192;9.000;2022-11-20T14:51:33;97517.31;;;14.23;27.80